Time,TemperatureF,DewpointF,PressureIn,WindDirection,WindDirectionDegrees,WindSpeedMPH,WindSpeedGustMPH,Humidity,HourlyPrecipIn,Conditions,Clouds,dailyrainin,SoftwareType,DateUTC
2013-02-23 07:02:00,18.0,11.0,-100.00,NNW,335,0.0,-999.0,76,0.00,,,-99.99,,2013-02-23 14:02:00,
2013-02-23 07:11:00,18.0,12.0,-100.00,WNW,290,0.0,2.0,77,0.00,,,-99.99,,2013-02-23 14:11:00,
2013-02-23 07:21:00,18.0,12.0,-100.00,ENE,75,1.0,2.0,78,0.00,,,-99.99,,2013-02-23 14:21:00,
2013-02-23 07:32:00,19.0,13.0,-100.00,WSW,255,0.0,2.0,78,0.00,,,-99.99,,2013-02-23 14:32:00,
2013-02-23 07:42:00,19.0,13.0,-100.00,SE,125,1.0,2.0,78,0.00,,,-99.99,,2013-02-23 14:42:00,
2013-02-23 07:52:00,19.0,14.0,-100.00,NE,40,1.0,2.0,78,0.00,,,-99.99,,2013-02-23 14:52:00,
2013-02-23 08:01:00,21.0,15.0,-100.00,North,350,0.0,2.0,77,0.00,,,-99.99,,2013-02-23 15:01:00,
2013-02-23 08:11:00,23.0,16.0,-100.00,West,275,2.0,4.0,72,0.00,,,-99.99,,2013-02-23 15:11:00,
2013-02-23 08:21:00,24.0,16.0,-100.00,NW,310,2.0,6.0,70,0.00,,,-99.99,,2013-02-23 15:21:00,
2013-02-23 08:32:00,25.0,17.0,-100.00,West,275,0.0,5.0,69,0.00,,,-99.99,,2013-02-23 15:32:00,
2013-02-23 08:42:00,26.0,17.0,-100.00,SSW,200,2.0,6.0,67,0.00,,,-99.99,,2013-02-23 15:42:00,
2013-02-23 08:51:00,27.0,16.0,-100.00,NW,320,5.0,6.0,63,0.00,,,-99.99,,2013-02-23 15:51:00,
2013-02-23 09:01:00,27.0,16.0,-100.00,NW,310,3.0,6.0,63,0.00,,,-99.99,,2013-02-23 16:01:00,
2013-02-23 09:11:00,28.0,16.0,-100.00,North,350,0.0,5.0,60,0.00,,,-99.99,,2013-02-23 16:11:00,
2013-02-23 09:21:00,27.0,15.0,-100.00,SSE,160,4.0,7.0,60,0.00,,,-99.99,,2013-02-23 16:21:00,
2013-02-23 09:31:00,26.0,15.0,-100.00,East,80,2.0,7.0,62,0.00,,,-99.99,,2013-02-23 16:31:00,
2013-02-23 09:42:00,26.0,15.0,-100.00,South,190,2.0,4.0,62,0.00,,,-99.99,,2013-02-23 16:42:00,
2013-02-23 09:51:00,26.0,16.0,-100.00,SE,125,2.0,4.0,64,0.00,,,-99.99,,2013-02-23 16:51:00,
2013-02-23 10:01:00,27.0,16.0,-100.00,West,260,6.0,9.0,63,0.00,,,-99.99,,2013-02-23 17:01:00,
2013-02-23 10:11:00,28.0,17.0,-100.00,West,265,2.0,6.0,62,0.00,,,-99.99,,2013-02-23 17:11:00,
2013-02-23 10:21:00,29.0,17.0,-100.00,South,185,2.0,8.0,61,0.00,,,-99.99,,2013-02-23 17:21:00,
2013-02-23 10:31:00,28.0,17.0,-100.00,NNW,345,2.0,7.0,62,0.00,,,-99.99,,2013-02-23 17:31:00,
2013-02-23 10:41:00,29.0,17.0,-100.00,NE,50,0.0,3.0,60,0.00,,,-99.99,,2013-02-23 17:41:00,
2013-02-23 10:52:00,29.0,17.0,-100.00,NE,50,0.0,3.0,60,0.00,,,-99.99,,2013-02-23 17:52:00,
2013-02-23 11:01:00,29.0,17.0,-100.00,SSW,195,6.0,7.0,60,0.00,,,-99.99,,2013-02-23 18:01:00,
2013-02-23 11:12:00,30.0,17.0,-100.00,East,100,1.0,6.0,59,0.00,,,-99.99,,2013-02-23 18:12:00,
2013-02-23 11:21:00,30.0,17.0,-100.00,WNW,285,6.0,7.0,58,0.00,,,-99.99,,2013-02-23 18:21:00,
2013-02-23 11:31:00,31.0,18.0,-100.00,SW,225,4.0,6.0,57,0.00,,,-99.99,,2013-02-23 18:31:00,
2013-02-23 11:42:00,31.0,18.0,-100.00,SW,220,3.0,7.0,57,0.00,,,-99.99,,2013-02-23 18:42:00,
2013-02-23 11:51:00,32.0,19.0,-100.00,South,190,4.0,7.0,56,0.00,,,-99.99,,2013-02-23 18:51:00,
2013-02-23 12:01:00,36.0,20.0,-100.00,SSW,210,3.0,4.0,53,0.00,,,-99.99,,2013-02-23 19:01:00,
2013-02-23 12:11:00,37.0,21.0,-100.00,SW,215,4.0,6.0,51,0.00,,,-99.99,,2013-02-23 19:11:00,
2013-02-23 12:21:00,39.0,22.0,-100.00,SSE,150,2.0,5.0,48,0.00,,,-99.99,,2013-02-23 19:21:00,
2013-02-23 12:32:00,42.0,23.0,-100.00,South,180,2.0,6.0,45,0.00,,,-99.99,,2013-02-23 19:32:00,
2013-02-23 12:41:00,42.0,22.0,-100.00,SSW,210,5.0,7.0,45,0.00,,,-99.99,,2013-02-23 19:41:00,
2013-02-23 12:51:00,40.0,21.0,-100.00,West,265,7.0,9.0,46,0.00,,,-99.99,,2013-02-23 19:51:00,
2013-02-23 13:01:00,40.0,22.0,-100.00,North,0,4.0,9.0,47,0.00,,,-99.99,,2013-02-23 20:01:00,
2013-02-23 13:11:00,42.0,22.0,-100.00,NNE,15,4.0,11.0,44,0.00,,,-99.99,,2013-02-23 20:11:00,
2013-02-23 13:21:00,42.0,22.0,-100.00,WSW,255,4.0,12.0,43,0.00,,,-99.99,,2013-02-23 20:21:00,
2013-02-23 13:31:00,39.0,21.0,-100.00,SSW,210,6.0,12.0,47,0.00,,,-99.99,,2013-02-23 20:31:00,
2013-02-23 13:41:00,37.0,21.0,-100.00,South,180,6.0,11.0,50,0.00,,,-99.99,,2013-02-23 20:41:00,
2013-02-23 13:52:00,37.0,21.0,-100.00,South,175,6.0,11.0,52,0.00,,,-99.99,,2013-02-23 20:52:00,
2013-02-23 14:01:00,35.0,20.0,-100.00,SSE,160,7.0,10.0,53,0.00,,,-99.99,,2013-02-23 21:01:00,
2013-02-23 14:11:00,35.0,21.0,-100.00,SSE,160,5.0,9.0,54,0.00,,,-99.99,,2013-02-23 21:11:00,
2013-02-23 14:22:00,36.0,21.0,-100.00,South,170,2.0,7.0,54,0.00,,,-99.99,,2013-02-23 21:22:00,
2013-02-23 14:31:00,38.0,22.0,-100.00,SE,135,2.0,4.0,52,0.00,,,-99.99,,2013-02-23 21:31:00,
2013-02-23 14:41:00,41.0,23.0,-100.00,ESE,110,3.0,6.0,49,0.00,,,-99.99,,2013-02-23 21:41:00,
2013-02-23 14:51:00,40.0,22.0,-100.00,ESE,115,5.0,7.0,49,0.00,,,-99.99,,2013-02-23 21:51:00,
2013-02-23 15:01:00,41.0,23.0,-100.00,South,190,2.0,5.0,48,0.00,,,-99.99,,2013-02-23 22:01:00,
2013-02-23 15:11:00,40.0,22.0,-100.00,SE,125,3.0,5.0,48,0.00,,,-99.99,,2013-02-23 22:11:00,
2013-02-23 15:21:00,39.0,22.0,-100.00,WSW,245,5.0,7.0,49,0.00,,,-99.99,,2013-02-23 22:21:00,
2013-02-23 15:31:00,38.0,22.0,-100.00,SSW,195,2.0,7.0,50,0.00,,,-99.99,,2013-02-23 22:31:00,
2013-02-23 15:41:00,38.0,22.0,-100.00,SW,230,4.0,6.0,52,0.00,,,-99.99,,2013-02-23 22:41:00,
2013-02-23 15:51:00,37.0,22.0,-100.00,West,260,3.0,7.0,53,0.00,,,-99.99,,2013-02-23 22:51:00,
2013-02-23 16:01:00,38.0,23.0,-100.00,SW,235,4.0,6.0,53,0.00,,,-99.99,,2013-02-23 23:01:00,
2013-02-23 16:11:00,40.0,24.0,-100.00,SW,215,2.0,7.0,52,0.00,,,-99.99,,2013-02-23 23:11:00,
2013-02-23 16:21:00,39.0,23.0,-100.00,SSW,195,3.0,6.0,52,0.00,,,-99.99,,2013-02-23 23:21:00,
2013-02-23 16:31:00,39.0,23.0,-100.00,SW,225,4.0,7.0,52,0.00,,,-99.99,,2013-02-23 23:31:00,
2013-02-23 16:41:00,40.0,23.0,-100.00,SW,230,2.0,6.0,51,0.00,,,-99.99,,2013-02-23 23:41:00,
2013-02-23 16:52:00,39.0,23.0,-100.00,West,265,2.0,4.0,52,0.00,,,-99.99,,2013-02-23 23:52:00,
2013-02-23 17:01:00,39.0,23.0,-100.00,WSW,240,3.0,4.0,52,0.00,,,-99.99,,2013-02-24 00:01:00,
2013-02-23 17:11:00,37.0,22.0,-100.00,SSW,205,4.0,7.0,54,0.00,,,-99.99,,2013-02-24 00:11:00,
2013-02-23 17:22:00,36.0,21.0,-100.00,SSW,195,4.0,6.0,55,0.00,,,-99.99,,2013-02-24 00:22:00,
2013-02-23 17:32:00,35.0,21.0,-100.00,South,190,3.0,7.0,56,0.00,,,-99.99,,2013-02-24 00:32:00,
2013-02-23 17:42:00,35.0,21.0,-100.00,South,175,4.0,6.0,56,0.00,,,-99.99,,2013-02-24 00:42:00,
2013-02-23 17:52:00,34.0,21.0,-100.00,SE,140,4.0,6.0,57,0.00,,,-99.99,,2013-02-24 00:52:00,
2013-02-23 18:00:00,34.0,21.0,-100.00,SE,130,2.0,7.0,59,0.00,,,-99.99,,2013-02-24 01:00:00,
2013-02-23 18:01:00,34.0,21.0,-100.00,East,100,4.0,7.0,57,0.00,,,-99.99,,2013-02-24 01:01:00,
2013-02-23 18:11:00,34.0,21.0,-100.00,SE,130,2.0,7.0,59,0.00,,,-99.99,,2013-02-24 01:11:00,
2013-02-23 18:22:00,34.0,21.0,-100.00,SE,130,2.0,7.0,59,0.00,,,-99.99,,2013-02-24 01:22:00,
2013-02-23 18:31:00,34.0,21.0,-100.00,SE,130,2.0,7.0,59,0.00,,,-99.99,,2013-02-24 01:31:00,
2013-02-23 18:41:00,34.0,21.0,-100.00,SE,130,2.0,7.0,59,0.00,,,-99.99,,2013-02-24 01:41:00,
2013-02-23 18:51:00,34.0,21.0,-100.00,SE,130,2.0,7.0,59,0.00,,,-99.99,,2013-02-24 01:51:00,